TimeEST,TemperatureF,Dew PointF,Humidity,Sea Level PressureIn,VisibilityMPH,Wind Direction,Wind SpeedMPH,Gust SpeedMPH,PrecipitationIn,Events,Conditions,WindDirDegrees,DateUTC
12:15 AM,42.8,42.8,100,29.93,4.0,Calm,Calm,-,N/A,,Overcast,0,2012-12-25 05:15:00
12:35 AM,42.8,42.8,100,29.93,3.0,Calm,Calm,-,N/A,,Mostly Cloudy,0,2012-12-25 05:35:00
12:55 AM,42.8,42.8,100,29.93,0.8,Calm,Calm,-,N/A,,Mostly Cloudy,0,2012-12-25 05:55:00
1:15 AM,39.2,39.2,100,29.93,0.2,Calm,Calm,-,N/A,Fog,Fog,0,2012-12-25 06:15:00
1:35 AM,37.4,37.4,100,29.94,0.5,Calm,Calm,-,N/A,Fog,Fog,0,2012-12-25 06:35:00
1:55 AM,41.0,41.0,100,29.95,2.5,Calm,Calm,-,N/A,,Clear,0,2012-12-25 06:55:00
2:15 AM,37.4,37.4,100,29.95,0.8,SSW,3.5,-,N/A,,Overcast,200,2012-12-25 07:15:00
2:35 AM,41.0,41.0,100,29.95,0.2,Calm,Calm,-,N/A,Fog,Fog,0,2012-12-25 07:35:00
2:55 AM,39.2,39.2,100,29.97,0.2,Calm,Calm,-,N/A,Fog,Fog,0,2012-12-25 07:55:00
3:15 AM,39.2,39.2,100,29.97,0.2,Calm,Calm,-,N/A,Fog,Fog,0,2012-12-25 08:15:00
3:35 AM,41.0,41.0,100,29.98,0.2,Calm,Calm,-,N/A,Fog,Fog,0,2012-12-25 08:35:00
3:55 AM,41.0,41.0,100,29.98,0.2,Calm,Calm,-,N/A,Fog,Fog,0,2012-12-25 08:55:00
4:15 AM,39.2,39.2,100,29.99,0.2,Calm,Calm,-,N/A,Fog,Fog,0,2012-12-25 09:15:00
4:35 AM,39.2,39.2,100,29.99,0.2,Calm,Calm,-,N/A,Fog,Fog,0,2012-12-25 09:35:00
4:55 AM,39.2,39.2,100,29.99,0.2,Calm,Calm,-,N/A,Fog,Fog,0,2012-12-25 09:55:00
5:15 AM,39.2,39.2,100,30.00,0.2,Calm,Calm,-,N/A,Fog,Fog,0,2012-12-25 10:15:00
5:35 AM,39.2,39.2,100,30.01,0.2,Calm,Calm,-,N/A,Fog,Fog,0,2012-12-25 10:35:00
5:55 AM,37.4,37.4,100,30.02,0.2,Calm,Calm,-,N/A,Fog,Fog,0,2012-12-25 10:55:00
6:15 AM,37.4,37.4,100,30.02,0.2,Calm,Calm,-,0.01,Fog,Fog,0,2012-12-25 11:15:00
6:35 AM,37.4,37.4,100,30.03,0.2,Calm,Calm,-,0.01,Fog,Fog,0,2012-12-25 11:35:00
6:55 AM,37.4,37.4,100,30.05,0.2,Calm,Calm,-,N/A,Fog,Fog,0,2012-12-25 11:55:00
7:15 AM,35.6,35.6,100,30.06,0.2,Calm,Calm,-,N/A,Fog,Fog,0,2012-12-25 12:15:00
7:35 AM,35.6,35.6,100,30.06,0.2,Calm,Calm,-,N/A,Fog,Fog,0,2012-12-25 12:35:00
7:55 AM,35.6,35.6,100,30.06,0.2,Calm,Calm,-,N/A,Fog,Fog,0,2012-12-25 12:55:00
8:15 AM,35.6,35.6,100,30.07,0.2,Calm,Calm,-,N/A,Fog,Fog,0,2012-12-25 13:15:00
8:35 AM,35.6,35.6,100,30.08,0.2,Calm,Calm,-,N/A,Fog,Fog,0,2012-12-25 13:35:00
8:55 AM,35.6,35.6,100,30.09,0.2,Calm,Calm,-,N/A,Fog,Fog,0,2012-12-25 13:55:00
9:15 AM,37.4,37.4,100,30.08,0.2,Calm,Calm,-,N/A,Fog,Fog,0,2012-12-25 14:15:00
9:35 AM,37.4,37.4,100,30.09,0.5,Calm,Calm,-,N/A,Fog,Fog,0,2012-12-25 14:35:00
9:55 AM,39.2,39.2,100,30.09,3.0,Calm,Calm,-,N/A,,Mostly Cloudy,0,2012-12-25 14:55:00
10:15 AM,41.0,41.0,100,30.10,2.5,Calm,Calm,-,N/A,,Overcast,0,2012-12-25 15:15:00
10:35 AM,42.8,42.8,100,30.11,10.0,Calm,Calm,-,N/A,,Scattered Clouds,0,2012-12-25 15:35:00
10:55 AM,44.6,44.6,100,30.11,10.0,Calm,Calm,-,N/A,,Clear,0,2012-12-25 15:55:00
11:15 AM,46.4,46.4,100,30.11,10.0,Calm,Calm,-,N/A,,Clear,0,2012-12-25 16:15:00
11:35 AM,48.2,48.2,100,30.10,10.0,Calm,Calm,-,N/A,,Clear,0,2012-12-25 16:35:00
11:55 AM,51.8,50.0,94,30.09,10.0,Calm,Calm,-,N/A,,Clear,0,2012-12-25 16:55:00
12:15 PM,53.6,44.6,72,30.07,10.0,Calm,Calm,-,N/A,,Clear,0,2012-12-25 17:15:00
12:35 PM,55.4,41.0,58,30.06,10.0,ENE,4.6,-,N/A,,Clear,70,2012-12-25 17:35:00
12:55 PM,55.4,41.0,58,30.06,10.0,NE,3.5,-,N/A,,Clear,50,2012-12-25 17:55:00
1:15 PM,55.4,39.2,54,30.06,10.0,NE,4.6,-,N/A,,Clear,40,2012-12-25 18:15:00
1:35 PM,57.2,39.2,51,30.06,10.0,NE,3.5,-,N/A,,Scattered Clouds,40,2012-12-25 18:35:00
1:55 PM,55.4,39.2,54,30.07,10.0,Calm,Calm,-,N/A,,Clear,0,2012-12-25 18:55:00
2:15 PM,55.4,39.2,54,30.06,10.0,ENE,4.6,-,N/A,,Clear,70,2012-12-25 19:15:00
2:35 PM,55.4,39.2,54,30.07,10.0,East,5.8,-,N/A,,Clear,100,2012-12-25 19:35:00
2:55 PM,55.4,39.2,54,30.07,10.0,ESE,3.5,-,N/A,,Clear,120,2012-12-25 19:55:00
3:15 PM,53.6,39.2,58,30.08,10.0,East,3.5,-,N/A,,Clear,100,2012-12-25 20:15:00
3:35 PM,53.6,39.2,58,30.08,10.0,Calm,Calm,-,N/A,,Clear,0,2012-12-25 20:35:00
3:55 PM,53.6,42.8,67,30.08,10.0,Calm,Calm,-,N/A,,Clear,0,2012-12-25 20:55:00
4:15 PM,51.8,44.6,76,30.08,10.0,Calm,Calm,-,N/A,,Clear,0,2012-12-25 21:15:00
4:35 PM,51.8,44.6,76,30.08,10.0,Calm,Calm,-,N/A,,Clear,0,2012-12-25 21:35:00
4:55 PM,50.0,42.8,76,30.07,10.0,Calm,Calm,-,N/A,,Clear,0,2012-12-25 21:55:00
5:15 PM,48.2,46.4,93,30.06,10.0,Calm,Calm,-,N/A,,Clear,0,2012-12-25 22:15:00
5:55 PM,46.4,46.4,100,30.07,10.0,Calm,Calm,-,N/A,,Clear,0,2012-12-25 22:55:00
6:15 PM,46.4,46.4,100,30.08,10.0,Calm,Calm,-,N/A,,Clear,0,2012-12-25 23:15:00
6:35 PM,44.6,44.6,100,30.08,10.0,Calm,Calm,-,N/A,,Scattered Clouds,0,2012-12-25 23:35:00
6:55 PM,46.4,46.4,100,30.10,10.0,Calm,Calm,-,N/A,,Overcast,0,2012-12-25 23:55:00
7:35 PM,48.2,42.8,82,30.11,10.0,ENE,3.5,-,N/A,,Mostly Cloudy,70,2012-12-26 00:35:00
7:55 PM,48.2,44.6,87,30.12,10.0,Calm,Calm,-,N/A,,Overcast,0,2012-12-26 00:55:00
8:15 PM,48.2,48.2,100,30.11,10.0,NE,5.8,-,N/A,,Mostly Cloudy,50,2012-12-26 01:15:00
8:35 PM,46.4,46.4,100,30.10,10.0,ENE,6.9,-,N/A,,Overcast,70,2012-12-26 01:35:00
8:55 PM,46.4,46.4,100,30.12,10.0,East,4.6,-,N/A,,Overcast,90,2012-12-26 01:55:00
9:15 PM,46.4,46.4,100,30.12,10.0,East,9.2,-,N/A,,Overcast,90,2012-12-26 02:15:00
9:35 PM,46.4,46.4,100,30.12,10.0,ENE,4.6,-,N/A,,Overcast,70,2012-12-26 02:35:00
9:55 PM,46.4,46.4,100,30.12,10.0,ENE,6.9,-,N/A,,Overcast,70,2012-12-26 02:55:00
10:15 PM,46.4,44.6,93,30.12,10.0,ENE,4.6,-,N/A,,Overcast,60,2012-12-26 03:15:00
11:15 PM,44.6,41.0,87,30.12,10.0,ENE,6.9,-,N/A,,Overcast,60,2012-12-26 04:15:00
11:35 PM,44.6,39.2,81,30.12,10.0,NNE,6.9,-,N/A,,Overcast,30,2012-12-26 04:35:00
11:55 PM,44.6,39.2,81,30.10,10.0,NE,6.9,-,N/A,,Overcast,50,2012-12-26 04:55:00